Time;durP1;ratioP1;P1;durP2;ratioP2;P2;SDS_P1;SDS_P2;PMS_P1;PMS_P2;Temp;Humidity;BMP_temperature;BMP_pressure;BME280_temperature;BME280_humidity;BME280_pressure;Samples;Min_cycle;Max_cycle;Signal;HPM_P1;HPM_P2
2020/12/25 00:00:33;;;;;;;7.00;3.60;;;;;;;5.32;75.33;99581.61;2137469;83;27803;-64
2020/12/25 00:03:37;;;;;;;8.65;4.00;;;;;;;5.33;75.10;99589.14;2137499;83;27581;-63
2020/12/25 00:06:40;;;;;;;16.05;6.70;;;;;;;5.33;75.10;99599.28;2137461;83;31814;-64
2020/12/25 00:09:42;;;;;;;13.65;5.45;;;;;;;5.33;75.10;99586.00;2137354;83;33587;-64
2020/12/25 00:12:44;;;;;;;8.48;4.97;;;;;;;5.33;75.09;99586.00;2131551;82;29234;-64
2020/12/25 00:15:47;;;;;;;6.70;4.22;;;;;;;5.32;75.07;99596.22;2127861;83;27722;-64
2020/12/25 00:18:49;;;;;;;7.90;4.17;;;;;;;5.31;75.04;99600.28;2127790;83;28816;-64
2020/12/25 00:21:52;;;;;;;9.93;4.37;;;;;;;5.31;75.13;99600.28;2127757;83;31190;-64
2020/12/25 00:24:54;;;;;;;11.03;4.08;;;;;;;5.33;75.11;99610.38;2127705;83;34065;-64
2020/12/25 00:27:57;;;;;;;8.10;4.25;;;;;;;5.34;75.14;99613.45;2127810;83;29168;-63
2020/12/25 00:30:59;;;;;;;4.95;3.40;;;;;;;5.38;75.16;99616.36;2127837;83;27626;-64
2020/12/25 00:34:08;;;;;;;8.93;4.08;;;;;;;5.41;75.15;99618.05;2127872;83;28898;-64
2020/12/25 00:37:11;;;;;;;6.87;4.25;;;;;;;5.42;75.15;99631.26;2127874;83;31196;-64
2020/12/25 00:40:13;;;;;;;6.05;3.58;;;;;;;5.46;75.17;99628.89;2127604;83;33067;-63
2020/12/25 00:43:15;;;;;;;4.30;3.25;;;;;;;5.47;75.13;99635.94;2127845;83;29161;-64
2020/12/25 00:46:18;;;;;;;7.55;4.47;;;;;;;5.47;75.13;99627.97;2127843;83;27789;-64
2020/12/25 00:49:20;;;;;;;7.70;4.17;;;;;;;5.49;75.11;99634.53;2127722;83;29780;-64
2020/12/25 00:52:24;;;;;;;6.60;3.92;;;;;;;5.46;75.03;99647.48;2127796;83;31151;-63
2020/12/25 00:55:26;;;;;;;5.70;3.72;;;;;;;5.47;75.15;99659.84;2127696;83;33116;-64
2020/12/25 00:58:29;;;;;;;4.37;3.00;;;;;;;5.48;75.14;99662.02;2127757;83;29220;-63
2020/12/25 01:01:31;;;;;;;7.28;4.30;;;;;;;5.48;75.09;99670.88;2127795;83;27672;-65
2020/12/25 01:04:33;;;;;;;5.47;3.40;;;;;;;5.53;75.14;99676.48;2127755;83;30110;-63
2020/12/25 01:07:36;;;;;;;4.80;3.72;;;;;;;5.52;75.07;99680.06;2127802;83;31093;-64
2020/12/25 01:10:38;;;;;;;9.80;4.03;;;;;;;5.52;75.02;99679.58;2127520;83;34088;-64
2020/12/25 01:13:46;;;;;;;6.85;4.03;;;;;;;5.53;75.04;99687.96;2127702;82;29697;-64
2020/12/25 01:16:51;;;;;;;5.62;3.52;;;;;;;5.52;75.02;99692.02;2127834;83;27691;-64
2020/12/25 01:19:53;;;;;;;5.15;3.30;;;;;;;5.51;75.08;99697.77;2127852;83;29153;-64
2020/12/25 01:22:56;;;;;;;6.45;4.12;;;;;;;5.49;75.08;99699.62;2127676;83;31359;-64
2020/12/25 01:25:58;;;;;;;5.20;3.35;;;;;;;5.47;75.09;99701.47;2127812;83;33177;-64
2020/12/25 01:29:03;;;;;;;5.72;3.85;;;;;;;5.44;75.15;99697.63;2127731;83;30009;-64
2020/12/25 01:32:06;;;;;;;;;;;;;;;5.43;75.23;99702.53;2130300;83;27692;-64
2020/12/25 01:35:08;;;;;;;8.03;3.80;;;;;;;5.45;75.30;99703.34;2127761;83;29662;-64
2020/12/25 01:38:11;;;;;;;6.65;4.67;;;;;;;5.46;75.35;99699.77;2127719;83;31604;-64
2020/12/25 01:41:14;;;;;;;5.72;4.15;;;;;;;5.47;75.35;99710.32;2127756;83;33093;-63
2020/12/25 01:44:17;;;;;;;6.05;4.20;;;;;;;5.49;75.34;99702.28;2127712;83;29222;-64
2020/12/25 01:47:20;;;;;;;6.40;4.42;;;;;;;5.50;75.34;99708.00;2127797;83;27590;-64
2020/12/25 01:50:23;;;;;;;6.17;4.53;;;;;;;5.49;75.35;99704.94;2127700;83;29732;-64
2020/12/25 01:53:28;;;;;;;7.30;4.97;;;;;;;5.47;75.32;99698.81;2127746;83;31148;-64
2020/12/25 01:56:30;;;;;;;5.65;3.87;;;;;;;5.45;75.38;99704.67;2127711;83;33960;-64
2020/12/25 01:59:33;;;;;;;8.13;4.47;;;;;;;5.45;75.44;99704.67;2127652;83;30173;-64
2020/12/25 02:02:36;;;;;;;5.97;4.55;;;;;;;5.42;75.45;99708.77;2127854;83;27678;-65
2020/12/25 02:05:39;;;;;;;6.33;4.47;;;;;;;5.43;75.46;99709.17;2127691;83;28729;-64
2020/12/25 02:08:41;;;;;;;7.30;4.78;;;;;;;5.45;75.50;99710.84;2103344;83;32017;-64
2020/12/25 02:11:43;;;;;;;7.62;4.65;;;;;;;5.46;75.57;99709.91;2127845;82;34043;-64
2020/12/25 02:14:46;;;;;;;5.45;3.83;;;;;;;5.45;75.48;99719.28;2137298;83;29262;-64
2020/12/25 02:17:49;;;;;;;6.95;4.40;;;;;;;5.41;75.58;99722.97;2137224;83;27669;-64
2020/12/25 02:20:52;;;;;;;6.47;4.65;;;;;;;5.40;75.62;99716.77;2137290;83;28822;-64
2020/12/25 02:23:54;;;;;;;7.28;3.92;;;;;;;5.40;75.70;99723.41;2137203;83;32129;-65
2020/12/25 02:26:57;;;;;;;7.17;3.60;;;;;;;5.38;75.67;99726.59;2136966;83;33132;-65
2020/12/25 02:30:00;;;;;;;3.62;3.30;;;;;;;5.37;75.77;99728.87;2137095;83;30089;-65
2020/12/25 02:33:02;;;;;;;5.47;4.53;;;;;;;5.38;75.87;99728.39;2137022;83;27751;-65
2020/12/25 02:36:04;;;;;;;4.45;3.87;;;;;;;5.41;75.92;99733.59;2136998;83;28830;-65
2020/12/25 02:39:06;;;;;;;4.42;3.67;;;;;;;5.41;75.97;99734.92;2137156;83;31125;-65
2020/12/25 02:42:12;;;;;;;5.05;4.00;;;;;;;5.44;76.03;99737.47;2137147;83;33108;-65
2020/12/25 02:45:14;;;;;;;4.70;3.95;;;;;;;5.46;76.06;99738.28;2137279;83;29204;-64
2020/12/25 02:48:17;;;;;;;7.25;4.03;;;;;;;5.44;76.00;99735.67;2137342;83;27867;-64
2020/12/25 02:51:19;;;;;;;7.87;4.55;;;;;;;5.39;76.04;99740.75;2137111;83;29244;-64
2020/12/25 02:54:21;;;;;;;5.95;4.92;;;;;;;5.38;76.16;99741.20;2137240;83;31136;-64
2020/12/25 02:57:24;;;;;;;6.53;4.17;;;;;;;5.35;76.13;99740.01;2137120;83;34051;-64
2020/12/25 03:00:26;;;;;;;9.60;4.53;;;;;;;5.36;76.25;99739.09;2137113;83;30108;-64
2020/12/25 03:03:28;;;;;;;6.58;4.47;;;;;;;5.35;76.17;99734.70;2137353;83;27658;-64
2020/12/25 03:06:31;;;;;;;11.22;5.70;;;;;;;5.37;76.20;99739.50;2137150;83;29072;-64
2020/12/25 03:09:33;;;;;;;8.75;5.55;;;;;;;5.37;76.18;99741.27;2137124;83;31600;-64
2020/12/25 03:12:35;;;;;;;12.10;6.17;;;;;;;5.40;76.21;99751.31;2137129;82;33119;-64
2020/12/25 03:15:37;;;;;;;11.30;5.87;;;;;;;5.41;76.25;99744.22;2137420;83;29783;-64
2020/12/25 03:18:40;;;;;;;8.63;6.08;;;;;;;5.42;76.19;99746.81;2137419;83;27600;-64
2020/12/25 03:21:43;;;;;;;11.28;7.12;;;;;;;5.42;76.19;99749.94;2137469;83;28828;-64
2020/12/25 03:24:46;;;;;;;17.92;6.35;;;;;;;5.40;76.23;99754.44;2137387;83;31156;-64
2020/12/25 03:27:48;;;;;;;9.83;5.78;;;;;;;5.37;76.22;99756.76;2137248;83;33610;-63
2020/12/25 03:30:50;;;;;;;10.35;5.50;;;;;;;5.36;76.14;99754.14;2137322;83;29256;-64
2020/12/25 03:33:53;;;;;;;8.50;5.60;;;;;;;5.35;76.21;99765.24;2137525;83;27682;-65
2020/12/25 03:36:56;;;;;;;7.87;5.00;;;;;;;5.35;76.25;99757.27;2137305;83;28818;-63
2020/12/25 03:39:58;;;;;;;7.92;5.50;;;;;;;5.38;76.28;99754.95;2137279;83;32109;-64
2020/12/25 03:43:01;;;;;;;8.90;5.08;;;;;;;5.40;76.25;99754.44;2137303;83;34137;-64
2020/12/25 03:46:03;;;;;;;7.47;4.75;;;;;;;5.39;76.29;99755.36;2137461;83;29169;-64
2020/12/25 03:49:07;;;;;;;8.78;5.67;;;;;;;5.41;76.26;99758.83;2137394;83;28198;-64
2020/12/25 03:52:09;;;;;;;9.68;5.35;;;;;;;5.36;76.18;99761.66;2137331;83;28863;-64
2020/12/25 03:55:12;;;;;;;11.65;5.62;;;;;;;5.34;76.22;99762.17;2137318;83;31670;-64
2020/12/25 03:58:14;;;;;;;6.78;4.10;;;;;;;5.29;76.22;99768.11;2137292;83;34031;-64
2020/12/25 04:01:17;;;;;;;7.85;4.35;;;;;;;5.27;76.25;99765.97;2137422;83;29142;-64
2020/12/25 04:04:20;;;;;;;7.97;4.12;;;;;;;5.26;76.27;99781.49;2137468;83;27652;-64
2020/12/25 04:07:22;;;;;;;10.65;4.65;;;;;;;5.28;76.32;99787.63;2137239;83;28922;-64
2020/12/25 04:10:24;;;;;;;10.35;5.33;;;;;;;5.26;76.28;99784.15;2137274;83;31992;-64
2020/12/25 04:13:27;;;;;;;11.00;5.08;;;;;;;5.28;76.34;99788.50;2133616;82;33102;-64
2020/12/25 04:16:30;;;;;;;9.98;4.42;;;;;;;5.29;76.38;99796.88;2127750;83;29635;-65
2020/12/25 04:19:33;;;;;;;10.03;5.10;;;;;;;5.26;76.24;99802.30;2127841;83;27701;-64
2020/12/25 04:22:35;;;;;;;8.30;5.00;;;;;;;5.23;76.19;99795.77;2127621;83;29348;-64
2020/12/25 04:25:37;;;;;;;6.72;4.40;;;;;;;5.23;76.29;99795.77;2127740;83;32038;-64
2020/12/25 04:28:40;;;;;;;7.33;3.65;;;;;;;5.20;76.28;99795.87;2127630;83;33895;-64
2020/12/25 04:31:42;;;;;;;7.22;3.42;;;;;;;5.17;76.23;99798.62;2127694;83;29214;-64
2020/12/25 04:34:44;;;;;;;4.40;2.47;;;;;;;5.16;76.35;99800.42;2127772;83;27659;-64
2020/12/25 04:37:46;;;;;;;3.67;2.95;;;;;;;5.17;76.28;99803.94;2127659;83;28903;-64
2020/12/25 04:40:49;;;;;;;4.87;3.47;;;;;;;5.19;76.34;99800.77;2127636;83;32370;-64
2020/12/25 04:43:53;;;;;;;5.67;3.40;;;;;;;5.16;76.19;99802.20;2127604;83;33189;-64
2020/12/25 04:47:12;;;;;;;4.22;3.33;;;;;;;5.16;76.35;99802.20;2127687;83;30094;-65
2020/12/25 04:50:14;;;;;;;4.83;3.22;;;;;;;5.16;76.24;99808.39;2127846;83;27784;-64
2020/12/25 04:53:17;;;;;;;7.70;3.87;;;;;;;5.18;76.26;99814.96;2127787;83;28800;-63
2020/12/25 04:56:21;;;;;;;7.10;4.37;;;;;;;5.16;76.28;99816.80;2127648;83;31146;-63
2020/12/25 04:59:23;;;;;;;4.00;3.27;;;;;;;5.02;76.13;99793.41;2127991;83;34068;-64
2020/12/25 05:02:26;;;;;;;5.40;2.92;;;;;;;5.02;76.13;99793.41;2127683;83;29623;-63
2020/12/25 05:05:31;;;;;;;4.40;3.17;;;;;;;5.12;76.15;99824.49;2103417;83;27701;-63
2020/12/25 05:08:49;;;;;;;6.45;2.98;;;;;;;5.12;76.24;99825.34;2127598;83;28845;-63
2020/12/25 05:11:53;;;;;;;5.17;3.22;;;;;;;5.14;76.19;99830.59;2127624;83;32145;-63
2020/12/25 05:14:56;;;;;;;4.67;3.27;;;;;;;5.15;76.22;99830.55;2135081;82;33142;-63
2020/12/25 05:17:59;;;;;;;3.20;2.90;;;;;;;5.13;76.14;99830.21;2137257;83;29139;-63
2020/12/25 05:21:08;;;;;;;5.85;2.98;;;;;;;5.12;76.18;99835.11;2137349;83;28180;-64
2020/12/25 05:24:08;;;;;;;4.37;2.45;;;;;;;5.12;76.22;99836.44;2136896;83;29792;-63
2020/12/25 05:27:14;;;;;;;4.40;2.72;;;;;;;5.11;76.17;99840.02;2137226;83;31211;-63
2020/12/25 05:30:17;;;;;;;5.53;3.25;;;;;;;5.09;76.22;99844.03;2137252;83;33124;-63
2020/12/25 05:33:22;;;;;;;10.48;4.47;;;;;;;5.08;76.26;99846.28;2137285;83;30025;-64
2020/12/25 05:36:29;;;;;;;9.38;5.80;;;;;;;5.06;76.25;99844.12;2137486;83;37843;-64
2020/12/25 05:39:37;;;;;;;8.23;5.10;;;;;;;5.07;76.32;99848.52;2137282;83;28829;-63
2020/12/25 05:42:50;;;;;;;6.15;3.90;;;;;;;5.08;76.30;99846.75;2137343;83;31649;-64
2020/12/25 05:45:52;;;;;;;5.67;3.92;;;;;;;5.09;76.29;99855.13;2137153;83;34028;-64
2020/12/25 05:48:58;;;;;;;5.03;4.22;;;;;;;5.12;76.42;99859.01;2137293;83;29596;-63
2020/12/25 05:52:01;;;;;;;4.67;4.10;;;;;;;5.13;76.41;99856.29;2137309;83;29453;-63
2020/12/25 05:55:03;;;;;;;5.25;4.20;;;;;;;5.15;76.37;99867.73;2137342;83;28834;-63
2020/12/25 05:58:06;;;;;;;5.83;4.42;;;;;;;5.15;76.32;99861.09;2137289;83;32094;-64
2020/12/25 06:01:09;;;;;;;6.53;4.65;;;;;;;5.14;76.24;99865.99;2137142;83;33082;-63
2020/12/25 06:04:12;;;;;;;6.03;4.83;;;;;;;5.13;76.20;99862.08;2137236;83;29493;-64
2020/12/25 06:07:16;;;;;;;7.40;4.37;;;;;;;5.08;76.24;99872.83;2137314;83;27910;-64
2020/12/25 06:10:25;;;;;;;10.15;4.95;;;;;;;5.06;76.27;99875.14;2137309;83;28824;-63
2020/12/25 06:13:40;;;;;;;9.03;5.53;;;;;;;5.06;76.30;99878.64;2134662;82;32132;-64
2020/12/25 06:17:00;;;;;;;12.45;6.00;;;;;;;5.07;76.33;99884.36;2127682;83;33190;-63
2020/12/25 06:20:05;;;;;;;10.45;5.95;;;;;;;5.09;76.39;99884.33;2089138;83;29177;-63
2020/12/25 06:23:07;;;;;;;12.97;6.30;;;;;;;5.12;76.52;99889.55;2128031;83;28020;-63
2020/12/25 06:26:10;;;;;;;10.28;5.45;;;;;;;5.13;76.46;99892.61;2103722;83;29731;-64
2020/12/25 06:29:16;;;;;;;6.30;5.00;;;;;;;5.14;76.38;99900.95;2127712;83;32048;-63
2020/12/25 06:32:18;;;;;;;6.80;4.85;;;;;;;5.13;76.34;99900.58;2127527;83;33127;-64
2020/12/25 06:35:39;;;;;;;7.58;5.42;;;;;;;5.11;76.41;99905.06;2127607;83;29605;-63
2020/12/25 06:38:43;;;;;;;7.65;5.42;;;;;;;5.10;76.35;99911.30;2127704;83;27690;-64
2020/12/25 06:41:46;;;;;;;9.38;5.47;;;;;;;5.11;76.37;99923.65;2127719;83;29548;-63
2020/12/25 06:44:48;;;;;;;7.72;5.12;;;;;;;5.13;76.40;99928.45;2103516;83;31685;-63
2020/12/25 06:47:51;;;;;;;13.85;8.33;;;;;;;5.14;76.39;99927.06;2127478;83;33147;-63
2020/12/25 06:50:59;;;;;;;16.52;9.50;;;;;;;5.14;76.41;99941.67;2127582;83;29166;-63
2020/12/25 06:54:03;;;;;;;13.78;9.10;;;;;;;5.15;76.41;99939.42;2127512;83;27729;-63
2020/12/25 06:57:09;;;;;;;13.10;9.20;;;;;;;5.19;76.44;99952.61;2127427;83;28902;-63
2020/12/25 07:00:12;;;;;;;10.05;8.23;;;;;;;5.19;76.48;99949.95;2127551;83;31151;-63
2020/12/25 07:03:15;;;;;;;9.35;6.25;;;;;;;5.18;76.44;99957.03;2127399;83;33095;-63
2020/12/25 07:06:21;;;;;;;7.40;4.95;;;;;;;5.15;76.49;99961.99;2127438;83;29110;-63
2020/12/25 07:09:46;;;;;;;8.28;5.30;;;;;;;5.17;76.52;99960.60;2103054;83;28195;-63
2020/12/25 07:12:50;;;;;;;8.95;6.20;;;;;;;5.21;76.51;99964.91;2127587;83;28846;-63
2020/12/25 07:15:53;;;;;;;12.25;8.23;;;;;;;5.20;76.38;99968.95;2135887;82;31198;-64
2020/12/25 07:18:56;;;;;;;20.52;8.73;;;;;;;5.16;76.21;99969.48;2137197;83;34022;-63
2020/12/25 07:21:58;;;;;;;16.45;9.55;;;;;;;5.12;76.31;99971.37;2137245;83;29310;-63
2020/12/25 07:25:09;;;;;;;14.85;9.10;;;;;;;5.12;76.33;99976.69;2137315;83;27661;-63
2020/12/25 07:28:12;;;;;;;15.30;9.78;;;;;;;5.11;76.35;99975.42;2137253;83;28825;-64
2020/12/25 07:31:15;;;;;;;16.00;8.70;;;;;;;5.12;76.37;99985.13;2137086;83;31124;-64
2020/12/25 07:34:23;;;;;;;13.53;8.63;;;;;;;5.10;76.36;99990.95;2137115;83;34062;-63
2020/12/25 07:37:26;;;;;;;17.57;9.53;;;;;;;5.10;76.40;100000.23;2137071;83;29275;-64
2020/12/25 07:40:28;;;;;;;16.15;9.53;;;;;;;5.10;76.39;100006.41;2137063;83;27849;-64
2020/12/25 07:43:31;;;;;;;15.35;9.13;;;;;;;5.11;76.37;100010.80;2137098;83;29295;-63
2020/12/25 07:46:34;;;;;;;15.05;9.30;;;;;;;5.13;76.41;100016.08;2137074;83;31223;-63
2020/12/25 07:49:39;;;;;;;19.15;11.05;;;;;;;5.13;76.26;100024.05;2137097;83;34057;-64
2020/12/25 07:52:43;;;;;;;18.40;10.38;;;;;;;5.12;76.25;100021.83;2137139;82;29381;-63
2020/12/25 07:55:47;;;;;;;19.37;11.60;;;;;;;5.10;76.16;100020.16;2137366;83;27654;-64
2020/12/25 07:58:51;;;;;;;16.25;8.40;;;;;;;5.11;76.16;100021.42;2137339;81;28055;-63
2020/12/25 08:01:57;;;;;;;15.80;8.68;;;;;;;5.10;76.12;100017.50;2137600;83;32107;-64
2020/12/25 08:04:59;;;;;;;15.13;8.38;;;;;;;5.09;76.11;100019.73;2137214;83;33125;-64
2020/12/25 08:08:03;;;;;;;9.25;6.17;;;;;;;5.05;76.05;100024.73;2137301;83;29085;-64
2020/12/25 08:11:06;;;;;;;11.28;6.60;;;;;;;5.04;76.11;100028.30;2137387;83;27722;-63
2020/12/25 08:14:11;;;;;;;13.05;6.67;;;;;;;5.00;75.99;100035.50;2135766;82;28887;-62
2020/12/25 08:17:13;;;;;;;;;;;;;;;5.00;76.14;100035.50;2106100;83;31139;-64
2020/12/25 08:20:17;;;;;;;7.92;5.53;;;;;;;5.05;76.09;100041.98;2127653;83;33626;-64
2020/12/25 08:23:19;;;;;;;9.45;5.33;;;;;;;5.08;76.19;100040.57;2127702;83;29228;-64
2020/12/25 08:26:31;;;;;;;8.73;6.70;;;;;;;5.11;76.22;100040.00;2127773;83;27670;-64
2020/12/25 08:29:36;;;;;;;9.23;8.00;;;;;;;5.16;76.01;100047.81;2127755;83;29712;-64
2020/12/25 08:32:38;;;;;;;10.10;7.53;;;;;;;5.14;75.83;100047.00;2127924;83;31736;-64
2020/12/25 08:35:40;;;;;;;18.95;9.50;;;;;;;5.16;76.02;100056.67;2103251;83;33973;-64
2020/12/25 08:38:43;;;;;;;12.03;9.93;;;;;;;5.21;76.09;100060.98;2127731;83;30416;-64
2020/12/25 08:41:53;;;;;;;12.85;8.83;;;;;;;5.22;75.86;100068.88;2127703;83;27664;-64
2020/12/25 08:44:57;;;;;;;9.20;6.60;;;;;;;5.22;75.92;100074.20;2127678;83;28742;-64
2020/12/25 08:48:08;;;;;;;10.23;5.90;;;;;;;5.23;75.78;100074.61;2127612;83;32040;-63
2020/12/25 08:51:14;;;;;;;7.25;5.80;;;;;;;5.23;75.79;100078.59;2127670;83;33984;-63
2020/12/25 08:54:26;;;;;;;10.55;6.45;;;;;;;5.22;75.76;100079.95;2127626;83;29176;-63
2020/12/25 08:57:31;;;;;;;9.13;7.00;;;;;;;5.21;75.64;100088.86;2127682;83;27703;-64
2020/12/25 09:00:33;;;;;;;8.58;7.15;;;;;;;5.17;75.61;100090.28;2127552;83;29346;-64
2020/12/25 09:03:41;;;;;;;14.30;7.80;;;;;;;5.15;75.61;100093.88;2127570;83;31148;-63
2020/12/25 09:06:43;;;;;;;10.38;7.55;;;;;;;5.15;75.79;100097.42;2127457;83;33137;-63
2020/12/25 09:09:46;;;;;;;8.60;6.60;;;;;;;5.15;75.79;100099.19;2127698;83;29798;-63
2020/12/25 09:12:49;;;;;;;9.68;7.15;;;;;;;5.13;75.65;100108.54;2127696;83;27635;-63
2020/12/25 09:15:52;;;;;;;11.70;7.72;;;;;;;5.09;75.63;100109.54;2127613;82;28888;-64
2020/12/25 09:18:55;;;;;;;11.03;8.63;;;;;;;5.05;75.66;100118.51;2127742;83;32058;-63
2020/12/25 09:21:58;;;;;;;11.38;7.30;;;;;;;5.04;75.73;100123.44;2127713;83;34013;-63
2020/12/25 09:25:01;;;;;;;11.50;6.58;;;;;;;5.02;75.72;100122.61;2127650;83;29134;-63
2020/12/25 09:28:03;;;;;;;20.15;13.75;;;;;;;5.04;75.81;100131.40;2127737;83;27692;-63
2020/12/25 09:31:08;;;;;;;12.95;9.50;;;;;;;5.06;75.72;100134.00;2127623;83;29777;-63
2020/12/25 09:34:10;;;;;;;;;;;;;;;5.11;75.78;100128.10;2130170;83;31210;-63
2020/12/25 09:37:13;;;;;;;13.10;9.15;;;;;;;5.17;75.86;100134.53;2127643;83;33133;-63
2020/12/25 09:40:16;;;;;;;14.00;8.63;;;;;;;5.25;75.83;100138.29;2127531;83;29168;-63
2020/12/25 09:43:19;;;;;;;11.00;8.40;;;;;;;5.28;75.47;100132.89;2127633;83;27728;-63
2020/12/25 09:46:22;;;;;;;9.50;7.08;;;;;;;5.30;75.05;100137.23;2127562;83;29773;-63
2020/12/25 09:49:25;;;;;;;7.67;6.87;;;;;;;5.27;74.92;100128.49;2127596;83;31141;-63
2020/12/25 09:52:27;;;;;;;9.55;8.38;;;;;;;5.24;74.91;100126.81;2127430;83;33546;-63
2020/12/25 09:55:36;;;;;;;9.03;7.53;;;;;;;5.26;75.28;100131.63;2127666;83;30044;-63
2020/12/25 09:58:36;;;;;;;12.53;7.12;;;;;;;5.27;74.96;100132.48;2127099;83;27645;-64
2020/12/25 10:01:38;;;;;;;16.87;10.30;;;;;;;5.21;74.92;100135.34;2127657;83;29410;-63
2020/12/25 10:04:41;;;;;;;15.15;9.53;;;;;;;5.18;74.93;100130.97;2127499;83;31144;-64
2020/12/25 10:07:44;;;;;;;29.57;18.27;;;;;;;5.11;74.81;100134.74;2127500;83;33113;-64
2020/12/25 10:10:47;;;;;;;11.85;8.88;;;;;;;5.01;74.29;100125.70;2127586;83;29265;-64
2020/12/25 10:13:49;;;;;;;12.18;6.92;;;;;;;4.92;74.26;100139.70;2127596;83;27661;-63
2020/12/25 10:16:52;;;;;;;9.40;6.55;;;;;;;4.82;74.39;100137.32;2149760;82;29776;-63
2020/12/25 10:19:54;;;;;;;8.03;5.62;;;;;;;4.78;74.48;100144.09;2153616;82;31161;-64
2020/12/25 10:22:57;;;;;;;7.65;5.78;;;;;;;4.68;74.29;100134.19;2153694;82;33113;-64
2020/12/25 10:26:00;;;;;;;7.05;5.50;;;;;;;4.61;74.64;100132.61;2153621;82;30122;-63
2020/12/25 10:29:03;;;;;;;7.83;4.95;;;;;;;4.59;74.66;100135.31;2153745;82;28257;-63
2020/12/25 10:32:05;;;;;;;6.45;4.90;;;;;;;4.58;74.72;100138.88;2153646;82;28893;-64
2020/12/25 10:35:09;;;;;;;6.95;4.67;;;;;;;4.58;74.49;100137.55;2153572;82;31130;-64
2020/12/25 10:38:11;;;;;;;6.97;3.90;;;;;;;4.55;74.41;100144.27;2153682;81;33110;-64
2020/12/25 10:41:13;;;;;;;8.85;4.85;;;;;;;4.52;74.44;100147.88;2153722;82;30078;-64
2020/12/25 10:44:16;;;;;;;8.10;4.65;;;;;;;4.50;74.46;100150.14;2153677;82;27709;-63
2020/12/25 10:47:18;;;;;;;5.83;4.80;;;;;;;4.55;74.50;100153.55;2153743;82;29841;-65
2020/12/25 10:50:21;;;;;;;7.35;5.30;;;;;;;4.56;74.38;100148.19;2153592;82;31145;-64
2020/12/25 10:53:23;;;;;;;10.93;6.42;;;;;;;4.59;74.44;100153.00;2153661;82;32915;-64
2020/12/25 10:56:30;;;;;;;7.00;6.00;;;;;;;4.60;74.67;100156.08;2153585;82;30087;-63
2020/12/25 10:59:32;;;;;;;12.37;6.90;;;;;;;4.61;74.38;100160.47;2153574;82;27667;-64
2020/12/25 11:02:35;;;;;;;9.00;6.00;;;;;;;4.63;74.67;100168.82;2153486;82;28808;-64
2020/12/25 11:05:37;;;;;;;15.48;9.65;;;;;;;4.64;74.53;100172.33;2153582;82;30362;-64
2020/12/25 11:08:40;;;;;;;13.03;8.33;;;;;;;4.66;74.75;100180.65;2153649;82;34031;-64
2020/12/25 11:11:43;;;;;;;14.10;8.63;;;;;;;4.69;74.75;100169.96;2153626;82;30127;-64
2020/12/25 11:14:45;;;;;;;9.23;6.28;;;;;;;4.76;74.88;100169.33;2153357;82;27692;-64
2020/12/25 11:17:48;;;;;;;12.68;8.55;;;;;;;4.82;74.85;100174.48;2137181;83;29769;-64
2020/12/25 11:20:51;;;;;;;13.60;7.78;;;;;;;4.90;74.86;100170.28;2137151;83;32274;-64
2020/12/25 11:23:55;;;;;;;11.50;5.30;;;;;;;4.96;74.48;100163.48;2137117;83;34346;-64
2020/12/25 11:26:58;;;;;;;8.60;5.83;;;;;;;5.02;74.48;100171.25;2137115;83;29228;-64
2020/12/25 11:30:01;;;;;;;12.73;6.05;;;;;;;5.10;74.55;100169.70;2137253;83;27742;-64
2020/12/25 11:33:03;;;;;;;6.90;4.45;;;;;;;5.16;74.31;100166.88;2137315;83;28158;-63
2020/12/25 11:36:06;;;;;;;8.43;5.50;;;;;;;5.20;74.15;100176.94;2137301;83;31137;-64
2020/12/25 11:39:09;;;;;;;9.55;5.80;;;;;;;5.21;73.83;100177.36;2137349;83;33931;-64
2020/12/25 11:42:11;;;;;;;21.77;10.53;;;;;;;5.21;73.85;100179.16;2137216;83;30004;-64
2020/12/25 11:45:13;;;;;;;36.98;19.75;;;;;;;5.19;73.72;100175.67;2137513;83;27738;-64
2020/12/25 11:48:17;;;;;;;9.65;5.60;;;;;;;5.20;73.56;100178.74;2137324;83;29708;-63
2020/12/25 11:51:23;;;;;;;8.70;5.10;;;;;;;5.15;73.33;100185.05;2137260;83;31123;-64
2020/12/25 11:54:26;;;;;;;9.68;5.50;;;;;;;5.12;73.24;100184.28;2136972;83;32315;-64
2020/12/25 11:57:29;;;;;;;8.28;5.40;;;;;;;5.06;73.16;100191.94;2137267;83;29163;-64
2020/12/25 12:00:33;;;;;;;7.25;5.35;;;;;;;5.00;73.04;100188.15;2137406;83;27695;-64
2020/12/25 12:03:35;;;;;;;12.37;7.85;;;;;;;4.94;73.06;100194.51;2137216;83;30176;-63
2020/12/25 12:06:38;;;;;;;6.90;3.60;;;;;;;4.88;73.02;100193.81;2137438;83;31219;-63
2020/12/25 12:09:41;;;;;;;13.65;8.48;;;;;;;4.81;72.76;100199.28;2137356;83;34109;-63
2020/12/25 12:12:44;;;;;;;13.93;6.80;;;;;;;4.75;72.86;100202.09;2137283;83;29152;-63
2020/12/25 12:15:47;;;;;;;7.25;5.15;;;;;;;4.75;73.22;100199.91;2137386;82;27866;-63
2020/12/25 12:18:51;;;;;;;5.92;3.58;;;;;;;4.75;73.10;100200.76;2137301;83;28919;-64
2020/12/25 12:21:55;;;;;;;;;;;;;;;4.72;72.99;100200.84;2139949;83;32187;-64
2020/12/25 12:24:57;;;;;;;7.85;4.97;;;;;;;4.75;73.29;100197.25;2137217;83;33135;-63
2020/12/25 12:28:00;;;;;;;10.18;6.03;;;;;;;4.75;73.17;100200.76;2137383;83;30032;-64
2020/12/25 12:31:03;;;;;;;13.08;5.72;;;;;;;4.75;73.20;100203.41;2137413;83;27804;-64
2020/12/25 12:34:06;;;;;;;14.60;7.92;;;;;;;4.74;73.30;100213.61;2137253;83;28816;-64
2020/12/25 12:37:09;;;;;;;8.05;4.28;;;;;;;4.71;73.15;100211.06;2137358;83;31240;-64
2020/12/25 12:40:13;;;;;;;13.85;5.80;;;;;;;4.65;72.27;100213.87;2137240;83;33121;-63
2020/12/25 12:43:15;;;;;;;10.08;5.90;;;;;;;4.53;72.61;100221.25;2137387;83;30231;-64
2020/12/25 12:46:18;;;;;;;18.32;10.00;;;;;;;4.47;72.94;100220.08;2137385;83;27662;-64
2020/12/25 12:49:23;;;;;;;17.05;11.03;;;;;;;4.45;73.14;100227.20;2137293;83;29498;-64
2020/12/25 12:52:25;;;;;;;13.18;7.65;;;;;;;4.45;73.18;100232.50;2136831;83;34862;-63
2020/12/25 12:55:28;;;;;;;7.22;6.00;;;;;;;4.46;73.29;100234.25;2137220;83;33277;-64
2020/12/25 12:58:33;;;;;;;14.03;8.58;;;;;;;4.46;73.27;100229.41;2137382;83;29593;-64
2020/12/25 13:01:35;;;;;;;;;;;;;;;4.45;73.28;100232.50;2139974;83;28189;-63
2020/12/25 13:04:41;;;;;;;13.90;9.45;;;;;;;4.47;73.37;100235.14;2137425;83;28844;-63
2020/12/25 13:07:44;;;;;;;11.75;8.60;;;;;;;4.50;73.52;100232.38;2109230;83;32310;-65
2020/12/25 13:10:47;;;;;;;7.10;4.50;;;;;;;4.56;73.45;100233.09;2137277;83;33089;-64
2020/12/25 13:13:50;;;;;;;12.53;7.20;;;;;;;4.60;73.36;100229.92;2137244;83;29172;-64
2020/12/25 13:16:53;;;;;;;8.83;5.78;;;;;;;4.65;73.47;100226.67;2146156;82;27746;-64
2020/12/25 13:19:55;;;;;;;8.93;6.33;;;;;;;4.68;73.29;100237.20;2156289;82;28830;-64
2020/12/25 13:22:58;;;;;;;11.15;6.50;;;;;;;4.70;73.29;100233.20;2156270;82;32105;-64
2020/12/25 13:26:01;;;;;;;14.55;7.40;;;;;;;4.72;73.31;100237.98;2156247;82;33056;-62
2020/12/25 13:29:04;;;;;;;11.20;7.60;;;;;;;4.75;73.20;100243.69;2156289;82;30047;-63
2020/12/25 13:32:07;;;;;;;12.33;6.83;;;;;;;4.71;73.17;100241.11;2156338;82;27654;-63
2020/12/25 13:35:09;;;;;;;12.68;6.55;;;;;;;4.69;72.98;100246.06;2156180;82;29025;-63
2020/12/25 13:38:14;;;;;;;14.23;8.03;;;;;;;4.65;73.02;100241.73;2156290;82;31131;-63
2020/12/25 13:41:19;;;;;;;14.15;7.97;;;;;;;4.62;73.06;100247.11;2156314;82;34039;-63
2020/12/25 13:44:22;;;;;;;;;;;;;;;4.56;72.80;100243.70;2158970;82;30049;-63
2020/12/25 13:47:25;;;;;;;11.93;6.75;;;;;;;4.51;72.74;100248.27;2156435;82;27666;-63
2020/12/25 13:50:27;;;;;;;14.80;9.28;;;;;;;4.43;72.37;100253.36;2156413;82;28808;-64
2020/12/25 13:53:30;;;;;;;12.82;8.28;;;;;;;4.34;72.60;100251.80;2156215;82;31134;-63
2020/12/25 13:56:35;;;;;;;10.10;6.75;;;;;;;4.29;72.58;100245.73;2156295;82;33947;-64
2020/12/25 13:59:38;;;;;;;14.47;7.07;;;;;;;4.25;72.57;100263.50;2156515;82;29252;-64
2020/12/25 14:02:41;;;;;;;12.45;7.22;;;;;;;4.22;72.50;100264.43;2156316;82;27609;-63
2020/12/25 14:05:44;;;;;;;14.68;8.68;;;;;;;4.21;72.65;100271.11;2156104;82;29826;-63
2020/12/25 14:08:48;;;;;;;16.40;8.55;;;;;;;4.22;72.92;100279.48;2156132;82;31144;-64
2020/12/25 14:11:58;;;;;;;17.55;9.93;;;;;;;4.23;72.86;100275.92;2156145;82;33151;-64
2020/12/25 14:15:01;;;;;;;13.15;8.45;;;;;;;4.22;72.84;100278.16;2156186;82;29152;-63
2020/12/25 14:18:04;;;;;;;11.15;8.05;;;;;;;4.21;72.85;100279.95;2154236;82;28081;-63
2020/12/25 14:21:07;;;;;;;9.90;5.75;;;;;;;4.19;72.64;100278.22;2153675;81;28879;-63
2020/12/25 14:24:09;;;;;;;7.40;4.37;;;;;;;4.12;72.16;100283.27;2153587;81;31212;-63
2020/12/25 14:27:12;;;;;;;12.73;6.72;;;;;;;4.00;71.95;100286.59;2153640;82;33082;-64